sensor_id;sensor_type;location;lat;lon;timestamp;P1;durP1;ratioP1;P2;durP2;ratioP2
69981;SDS011;57319;56.274;43.980;2024-03-29T00:00:40;5.28;;;2.15;;
69981;SDS011;57319;56.274;43.980;2024-03-29T00:03:08;1.70;;;1.60;;
69981;SDS011;57319;56.274;43.980;2024-03-29T00:05:35;2.40;;;2.20;;
69981;SDS011;57319;56.274;43.980;2024-03-29T00:08:02;1.85;;;1.75;;
69981;SDS011;57319;56.274;43.980;2024-03-29T00:10:28;3.88;;;2.03;;
69981;SDS011;57319;56.274;43.980;2024-03-29T00:12:54;3.33;;;1.73;;
69981;SDS011;57319;56.274;43.980;2024-03-29T00:15:19;5.60;;;1.92;;
69981;SDS011;57319;56.274;43.980;2024-03-29T00:17:45;4.93;;;2.25;;
69981;SDS011;57319;56.274;43.980;2024-03-29T00:20:11;3.03;;;2.15;;
69981;SDS011;57319;56.274;43.980;2024-03-29T00:22:37;2.50;;;1.63;;
69981;SDS011;57319;56.274;43.980;2024-03-29T00:25:03;2.20;;;1.88;;
69981;SDS011;57319;56.274;43.980;2024-03-29T00:27:31;4.55;;;2.30;;
69981;SDS011;57319;56.274;43.980;2024-03-29T00:29:57;5.47;;;2.25;;
69981;SDS011;57319;56.274;43.980;2024-03-29T00:32:23;1.83;;;1.73;;
69981;SDS011;57319;56.274;43.980;2024-03-29T00:34:51;2.88;;;1.98;;
69981;SDS011;57319;56.274;43.980;2024-03-29T00:37:17;2.33;;;2.08;;
69981;SDS011;57319;56.274;43.980;2024-03-29T00:39:43;1.80;;;1.52;;
69981;SDS011;57319;56.274;43.980;2024-03-29T00:42:09;2.08;;;1.77;;
69981;SDS011;57319;56.274;43.980;2024-03-29T00:44:38;1.77;;;1.67;;
69981;SDS011;57319;56.274;43.980;2024-03-29T00:47:04;7.88;;;2.10;;
69981;SDS011;57319;56.274;43.980;2024-03-29T00:49:30;2.05;;;1.95;;
69981;SDS011;57319;56.274;43.980;2024-03-29T00:51:56;3.08;;;1.60;;
69981;SDS011;57319;56.274;43.980;2024-03-29T00:54:22;2.58;;;2.20;;
69981;SDS011;57319;56.274;43.980;2024-03-29T00:56:49;1.63;;;1.52;;
69981;SDS011;57319;56.274;43.980;2024-03-29T00:59:15;2.00;;;1.73;;
69981;SDS011;57319;56.274;43.980;2024-03-29T01:01:41;1.60;;;1.50;;
69981;SDS011;57319;56.274;43.980;2024-03-29T01:04:06;2.42;;;1.75;;
69981;SDS011;57319;56.274;43.980;2024-03-29T01:06:32;3.60;;;1.80;;
69981;SDS011;57319;56.274;43.980;2024-03-29T01:08:59;2.25;;;1.63;;
69981;SDS011;57319;56.274;43.980;2024-03-29T01:11:26;2.00;;;1.50;;
69981;SDS011;57319;56.274;43.980;2024-03-29T01:13:52;4.53;;;1.92;;
69981;SDS011;57319;56.274;43.980;2024-03-29T01:16:18;9.77;;;2.45;;
69981;SDS011;57319;56.274;43.980;2024-03-29T01:18:44;2.08;;;1.95;;
69981;SDS011;57319;56.274;43.980;2024-03-29T01:21:11;16.17;;;3.00;;
69981;SDS011;57319;56.274;43.980;2024-03-29T01:23:37;4.18;;;2.03;;
69981;SDS011;57319;56.274;43.980;2024-03-29T01:26:04;2.28;;;2.08;;
69981;SDS011;57319;56.274;43.980;2024-03-29T01:28:31;15.40;;;2.70;;
69981;SDS011;57319;56.274;43.980;2024-03-29T01:30:57;7.55;;;2.33;;
69981;SDS011;57319;56.274;43.980;2024-03-29T01:33:24;8.38;;;2.50;;
69981;SDS011;57319;56.274;43.980;2024-03-29T01:35:50;6.22;;;2.60;;
69981;SDS011;57319;56.274;43.980;2024-03-29T01:38:15;9.00;;;2.67;;
69981;SDS011;57319;56.274;43.980;2024-03-29T01:40:41;2.85;;;2.30;;
69981;SDS011;57319;56.274;43.980;2024-03-29T01:43:07;2.33;;;2.00;;
69981;SDS011;57319;56.274;43.980;2024-03-29T01:45:37;2.95;;;2.17;;
69981;SDS011;57319;56.274;43.980;2024-03-29T01:48:04;2.58;;;2.17;;
69981;SDS011;57319;56.274;43.980;2024-03-29T01:50:31;2.08;;;1.83;;
69981;SDS011;57319;56.274;43.980;2024-03-29T01:52:57;5.18;;;2.50;;
69981;SDS011;57319;56.274;43.980;2024-03-29T01:55:24;10.55;;;2.53;;
69981;SDS011;57319;56.274;43.980;2024-03-29T01:57:50;2.72;;;2.30;;
69981;SDS011;57319;56.274;43.980;2024-03-29T02:00:16;8.18;;;2.90;;
69981;SDS011;57319;56.274;43.980;2024-03-29T02:02:43;4.82;;;3.13;;
69981;SDS011;57319;56.274;43.980;2024-03-29T02:05:08;3.55;;;2.17;;
69981;SDS011;57319;56.274;43.980;2024-03-29T02:07:35;3.10;;;2.80;;
69981;SDS011;57319;56.274;43.980;2024-03-29T02:10:02;3.33;;;2.78;;
69981;SDS011;57319;56.274;43.980;2024-03-29T02:12:31;3.63;;;2.72;;
69981;SDS011;57319;56.274;43.980;2024-03-29T02:14:56;9.50;;;2.67;;
69981;SDS011;57319;56.274;43.980;2024-03-29T02:17:23;5.28;;;3.20;;
69981;SDS011;57319;56.274;43.980;2024-03-29T02:19:49;3.70;;;2.58;;
69981;SDS011;57319;56.274;43.980;2024-03-29T02:22:15;6.78;;;3.05;;
69981;SDS011;57319;56.274;43.980;2024-03-29T02:24:43;11.40;;;2.60;;
69981;SDS011;57319;56.274;43.980;2024-03-29T02:27:09;3.05;;;2.45;;
69981;SDS011;57319;56.274;43.980;2024-03-29T02:29:35;12.60;;;2.80;;
69981;SDS011;57319;56.274;43.980;2024-03-29T02:32:04;17.80;;;3.70;;
69981;SDS011;57319;56.274;43.980;2024-03-29T02:34:30;36.22;;;4.45;;
69981;SDS011;57319;56.274;43.980;2024-03-29T02:36:56;29.98;;;3.75;;
69981;SDS011;57319;56.274;43.980;2024-03-29T02:39:22;32.25;;;3.50;;
69981;SDS011;57319;56.274;43.980;2024-03-29T02:41:48;21.48;;;3.03;;
69981;SDS011;57319;56.274;43.980;2024-03-29T02:44:14;27.80;;;3.35;;
69981;SDS011;57319;56.274;43.980;2024-03-29T02:46:41;27.67;;;3.60;;
69981;SDS011;57319;56.274;43.980;2024-03-29T02:49:07;7.30;;;2.90;;
69981;SDS011;57319;56.274;43.980;2024-03-29T02:51:34;30.92;;;3.97;;
69981;SDS011;57319;56.274;43.980;2024-03-29T02:54:00;38.35;;;4.28;;
69981;SDS011;57319;56.274;43.980;2024-03-29T02:56:26;29.35;;;3.17;;
69981;SDS011;57319;56.274;43.980;2024-03-29T02:58:52;42.17;;;4.47;;
69981;SDS011;57319;56.274;43.980;2024-03-29T03:01:18;42.55;;;4.85;;
69981;SDS011;57319;56.274;43.980;2024-03-29T03:03:44;38.00;;;5.10;;
69981;SDS011;57319;56.274;43.980;2024-03-29T03:06:10;24.80;;;4.82;;
69981;SDS011;57319;56.274;43.980;2024-03-29T03:08:36;19.38;;;3.60;;
69981;SDS011;57319;56.274;43.980;2024-03-29T03:11:20;31.60;;;3.30;;
69981;SDS011;57319;56.274;43.980;2024-03-29T03:13:45;9.82;;;4.03;;
69981;SDS011;57319;56.274;43.980;2024-03-29T03:16:11;21.20;;;4.07;;
69981;SDS011;57319;56.274;43.980;2024-03-29T03:18:37;11.52;;;4.28;;
69981;SDS011;57319;56.274;43.980;2024-03-29T03:21:03;10.48;;;4.80;;
69981;SDS011;57319;56.274;43.980;2024-03-29T03:23:28;11.60;;;4.47;;
69981;SDS011;57319;56.274;43.980;2024-03-29T03:25:54;7.90;;;5.10;;
69981;SDS011;57319;56.274;43.980;2024-03-29T03:28:24;16.50;;;6.15;;
69981;SDS011;57319;56.274;43.980;2024-03-29T03:30:50;12.45;;;5.05;;
69981;SDS011;57319;56.274;43.980;2024-03-29T03:33:17;6.95;;;5.32;;
69981;SDS011;57319;56.274;43.980;2024-03-29T03:35:43;9.25;;;4.07;;
69981;SDS011;57319;56.274;43.980;2024-03-29T03:38:09;10.88;;;3.35;;
69981;SDS011;57319;56.274;43.980;2024-03-29T03:40:35;4.20;;;2.95;;
69981;SDS011;57319;56.274;43.980;2024-03-29T03:43:04;5.20;;;3.38;;
69981;SDS011;57319;56.274;43.980;2024-03-29T03:45:37;12.57;;;3.60;;
69981;SDS011;57319;56.274;43.980;2024-03-29T03:48:09;11.45;;;3.15;;
69981;SDS011;57319;56.274;43.980;2024-03-29T03:50:36;5.93;;;2.90;;
69981;SDS011;57319;56.274;43.980;2024-03-29T03:53:02;3.67;;;2.88;;
69981;SDS011;57319;56.274;43.980;2024-03-29T03:55:28;5.32;;;2.92;;
69981;SDS011;57319;56.274;43.980;2024-03-29T03:57:54;8.57;;;3.65;;
69981;SDS011;57319;56.274;43.980;2024-03-29T04:00:20;4.35;;;2.45;;
69981;SDS011;57319;56.274;43.980;2024-03-29T04:02:48;4.32;;;2.75;;
69981;SDS011;57319;56.274;43.980;2024-03-29T04:05:18;5.22;;;2.70;;
69981;SDS011;57319;56.274;43.980;2024-03-29T04:07:45;10.63;;;2.72;;
69981;SDS011;57319;56.274;43.980;2024-03-29T04:10:11;6.22;;;2.50;;
69981;SDS011;57319;56.274;43.980;2024-03-29T04:12:37;8.25;;;2.50;;
69981;SDS011;57319;56.274;43.980;2024-03-29T04:15:03;7.18;;;2.80;;
69981;SDS011;57319;56.274;43.980;2024-03-29T04:17:30;8.98;;;2.55;;
69981;SDS011;57319;56.274;43.980;2024-03-29T04:19:57;4.22;;;2.38;;
69981;SDS011;57319;56.274;43.980;2024-03-29T04:22:23;5.22;;;2.50;;
69981;SDS011;57319;56.274;43.980;2024-03-29T04:24:49;11.02;;;2.55;;
69981;SDS011;57319;56.274;43.980;2024-03-29T04:27:15;6.80;;;2.58;;
69981;SDS011;57319;56.274;43.980;2024-03-29T04:29:41;5.45;;;2.45;;
69981;SDS011;57319;56.274;43.980;2024-03-29T04:32:07;6.35;;;2.50;;
69981;SDS011;57319;56.274;43.980;2024-03-29T04:34:33;4.65;;;2.47;;
69981;SDS011;57319;56.274;43.980;2024-03-29T04:36:59;2.92;;;2.45;;
69981;SDS011;57319;56.274;43.980;2024-03-29T04:39:25;8.50;;;2.60;;
69981;SDS011;57319;56.274;43.980;2024-03-29T04:41:50;12.55;;;2.35;;
69981;SDS011;57319;56.274;43.980;2024-03-29T04:44:24;10.05;;;2.92;;
69981;SDS011;57319;56.274;43.980;2024-03-29T04:46:51;4.32;;;2.83;;
69981;SDS011;57319;56.274;43.980;2024-03-29T04:49:21;6.63;;;2.35;;
69981;SDS011;57319;56.274;43.980;2024-03-29T04:51:56;5.75;;;2.30;;
69981;SDS011;57319;56.274;43.980;2024-03-29T04:54:23;6.10;;;2.55;;
69981;SDS011;57319;56.274;43.980;2024-03-29T04:56:49;10.60;;;2.63;;
69981;SDS011;57319;56.274;43.980;2024-03-29T04:59:14;13.95;;;2.30;;
69981;SDS011;57319;56.274;43.980;2024-03-29T05:01:43;5.63;;;2.42;;
69981;SDS011;57319;56.274;43.980;2024-03-29T05:04:09;2.03;;;1.95;;
69981;SDS011;57319;56.274;43.980;2024-03-29T05:06:36;9.95;;;2.50;;
69981;SDS011;57319;56.274;43.980;2024-03-29T05:09:01;12.45;;;2.63;;
69981;SDS011;57319;56.274;43.980;2024-03-29T05:11:27;8.57;;;2.47;;
69981;SDS011;57319;56.274;43.980;2024-03-29T05:13:53;13.00;;;2.72;;
69981;SDS011;57319;56.274;43.980;2024-03-29T05:16:18;5.47;;;2.35;;
69981;SDS011;57319;56.274;43.980;2024-03-29T05:18:47;10.00;;;2.53;;
69981;SDS011;57319;56.274;43.980;2024-03-29T05:21:13;11.70;;;2.65;;
69981;SDS011;57319;56.274;43.980;2024-03-29T05:23:39;15.45;;;2.50;;
69981;SDS011;57319;56.274;43.980;2024-03-29T05:26:04;10.10;;;2.30;;
69981;SDS011;57319;56.274;43.980;2024-03-29T05:28:30;10.00;;;1.95;;
69981;SDS011;57319;56.274;43.980;2024-03-29T05:30:55;16.08;;;1.90;;
69981;SDS011;57319;56.274;43.980;2024-03-29T05:33:21;6.32;;;2.08;;
69981;SDS011;57319;56.274;43.980;2024-03-29T05:35:47;10.18;;;1.65;;
69981;SDS011;57319;56.274;43.980;2024-03-29T05:38:13;10.60;;;2.00;;
69981;SDS011;57319;56.274;43.980;2024-03-29T05:40:39;3.00;;;1.75;;
69981;SDS011;57319;56.274;43.980;2024-03-29T05:43:04;7.88;;;2.20;;
69981;SDS011;57319;56.274;43.980;2024-03-29T05:45:30;7.90;;;1.75;;
69981;SDS011;57319;56.274;43.980;2024-03-29T05:47:58;6.75;;;2.03;;
69981;SDS011;57319;56.274;43.980;2024-03-29T05:50:24;2.75;;;2.00;;
69981;SDS011;57319;56.274;43.980;2024-03-29T05:52:51;3.28;;;1.85;;
69981;SDS011;57319;56.274;43.980;2024-03-29T05:55:18;4.50;;;2.00;;
69981;SDS011;57319;56.274;43.980;2024-03-29T05:57:44;9.68;;;2.08;;
69981;SDS011;57319;56.274;43.980;2024-03-29T06:00:14;7.65;;;2.08;;
69981;SDS011;57319;56.274;43.980;2024-03-29T06:02:41;4.30;;;1.75;;
69981;SDS011;57319;56.274;43.980;2024-03-29T06:05:08;4.82;;;2.00;;
69981;SDS011;57319;56.274;43.980;2024-03-29T06:07:35;5.88;;;2.35;;
69981;SDS011;57319;56.274;43.980;2024-03-29T06:10:01;6.15;;;2.40;;
69981;SDS011;57319;56.274;43.980;2024-03-29T06:12:33;8.63;;;2.33;;
69981;SDS011;57319;56.274;43.980;2024-03-29T06:15:04;3.83;;;2.72;;
69981;SDS011;57319;56.274;43.980;2024-03-29T06:17:49;6.63;;;2.40;;
69981;SDS011;57319;56.274;43.980;2024-03-29T06:20:15;2.00;;;1.90;;
69981;SDS011;57319;56.274;43.980;2024-03-29T06:22:41;3.58;;;2.08;;
69981;SDS011;57319;56.274;43.980;2024-03-29T06:25:07;7.43;;;2.30;;
69981;SDS011;57319;56.274;43.980;2024-03-29T06:27:35;2.30;;;2.10;;
69981;SDS011;57319;56.274;43.980;2024-03-29T06:30:05;5.63;;;2.30;;
69981;SDS011;57319;56.274;43.980;2024-03-29T06:32:32;11.70;;;2.33;;
69981;SDS011;57319;56.274;43.980;2024-03-29T06:34:58;6.10;;;2.20;;
69981;SDS011;57319;56.274;43.980;2024-03-29T06:37:25;2.00;;;1.67;;
69981;SDS011;57319;56.274;43.980;2024-03-29T06:39:53;6.70;;;1.90;;
69981;SDS011;57319;56.274;43.980;2024-03-29T06:42:19;6.80;;;2.28;;
69981;SDS011;57319;56.274;43.980;2024-03-29T06:44:45;2.95;;;2.20;;
69981;SDS011;57319;56.274;43.980;2024-03-29T06:47:11;6.40;;;2.22;;
69981;SDS011;57319;56.274;43.980;2024-03-29T06:49:37;2.10;;;2.00;;
69981;SDS011;57319;56.274;43.980;2024-03-29T06:52:02;5.03;;;1.92;;
69981;SDS011;57319;56.274;43.980;2024-03-29T06:54:28;1.85;;;1.75;;
69981;SDS011;57319;56.274;43.980;2024-03-29T06:56:55;2.20;;;1.60;;
69981;SDS011;57319;56.274;43.980;2024-03-29T06:59:21;2.13;;;1.90;;
69981;SDS011;57319;56.274;43.980;2024-03-29T07:01:47;2.85;;;2.17;;
69981;SDS011;57319;56.274;43.980;2024-03-29T07:04:17;3.45;;;2.00;;
69981;SDS011;57319;56.274;43.980;2024-03-29T07:06:44;1.92;;;1.83;;
69981;SDS011;57319;56.274;43.980;2024-03-29T07:09:13;7.82;;;1.90;;
69981;SDS011;57319;56.274;43.980;2024-03-29T07:11:39;12.30;;;2.25;;
69981;SDS011;57319;56.274;43.980;2024-03-29T07:14:06;2.85;;;2.30;;
69981;SDS011;57319;56.274;43.980;2024-03-29T07:16:31;2.53;;;1.83;;
69981;SDS011;57319;56.274;43.980;2024-03-29T07:18:57;3.00;;;1.85;;
69981;SDS011;57319;56.274;43.980;2024-03-29T07:21:23;3.75;;;1.52;;
69981;SDS011;57319;56.274;43.980;2024-03-29T07:23:50;11.30;;;2.30;;
69981;SDS011;57319;56.274;43.980;2024-03-29T07:26:16;4.28;;;1.83;;
69981;SDS011;57319;56.274;43.980;2024-03-29T07:28:42;2.13;;;2.03;;
69981;SDS011;57319;56.274;43.980;2024-03-29T07:31:08;7.40;;;2.13;;
69981;SDS011;57319;56.274;43.980;2024-03-29T07:33:34;1.75;;;1.70;;
69981;SDS011;57319;56.274;43.980;2024-03-29T07:36:02;6.03;;;1.88;;
69981;SDS011;57319;56.274;43.980;2024-03-29T07:38:29;4.82;;;2.20;;
69981;SDS011;57319;56.274;43.980;2024-03-29T07:40:55;3.85;;;1.70;;
69981;SDS011;57319;56.274;43.980;2024-03-29T07:43:21;1.60;;;1.52;;
69981;SDS011;57319;56.274;43.980;2024-03-29T07:45:47;5.00;;;1.42;;
69981;SDS011;57319;56.274;43.980;2024-03-29T07:48:14;3.63;;;1.48;;
69981;SDS011;57319;56.274;43.980;2024-03-29T07:50:41;1.73;;;1.63;;
69981;SDS011;57319;56.274;43.980;2024-03-29T07:53:11;1.75;;;1.30;;
69981;SDS011;57319;56.274;43.980;2024-03-29T07:55:37;2.25;;;1.65;;
69981;SDS011;57319;56.274;43.980;2024-03-29T07:58:05;3.05;;;1.50;;
69981;SDS011;57319;56.274;43.980;2024-03-29T08:00:31;3.65;;;1.80;;
69981;SDS011;57319;56.274;43.980;2024-03-29T08:02:58;3.80;;;1.98;;
69981;SDS011;57319;56.274;43.980;2024-03-29T08:05:24;1.70;;;1.60;;
69981;SDS011;57319;56.274;43.980;2024-03-29T08:07:49;5.57;;;1.40;;
69981;SDS011;57319;56.274;43.980;2024-03-29T08:10:15;2.22;;;1.95;;
69981;SDS011;57319;56.274;43.980;2024-03-29T08:12:43;1.73;;;1.35;;
69981;SDS011;57319;56.274;43.980;2024-03-29T08:15:08;6.00;;;1.48;;
69981;SDS011;57319;56.274;43.980;2024-03-29T08:17:34;4.18;;;1.50;;
69981;SDS011;57319;56.274;43.980;2024-03-29T08:20:02;1.40;;;1.40;;
69981;SDS011;57319;56.274;43.980;2024-03-29T08:22:29;8.77;;;1.75;;
69981;SDS011;57319;56.274;43.980;2024-03-29T08:24:58;1.60;;;1.50;;
69981;SDS011;57319;56.274;43.980;2024-03-29T08:27:25;5.88;;;1.67;;
69981;SDS011;57319;56.274;43.980;2024-03-29T08:29:51;4.65;;;1.65;;
69981;SDS011;57319;56.274;43.980;2024-03-29T08:32:17;6.22;;;1.52;;
69981;SDS011;57319;56.274;43.980;2024-03-29T08:34:43;6.53;;;1.77;;
69981;SDS011;57319;56.274;43.980;2024-03-29T08:37:08;1.75;;;1.63;;
69981;SDS011;57319;56.274;43.980;2024-03-29T08:39:34;1.30;;;1.27;;
69981;SDS011;57319;56.274;43.980;2024-03-29T08:42:00;3.92;;;1.30;;
69981;SDS011;57319;56.274;43.980;2024-03-29T08:44:31;1.80;;;1.70;;
69981;SDS011;57319;56.274;43.980;2024-03-29T08:46:57;2.08;;;1.63;;
69981;SDS011;57319;56.274;43.980;2024-03-29T08:49:24;3.67;;;1.40;;
69981;SDS011;57319;56.274;43.980;2024-03-29T08:51:50;1.38;;;1.30;;
69981;SDS011;57319;56.274;43.980;2024-03-29T08:54:15;1.45;;;1.27;;
69981;SDS011;57319;56.274;43.980;2024-03-29T08:56:41;1.63;;;1.52;;
69981;SDS011;57319;56.274;43.980;2024-03-29T08:59:07;4.55;;;1.67;;
69981;SDS011;57319;56.274;43.980;2024-03-29T09:01:41;1.80;;;1.70;;
69981;SDS011;57319;56.274;43.980;2024-03-29T09:04:07;4.75;;;1.92;;
69981;SDS011;57319;56.274;43.980;2024-03-29T09:06:36;1.45;;;1.45;;
69981;SDS011;57319;56.274;43.980;2024-03-29T09:09:04;3.20;;;1.70;;
69981;SDS011;57319;56.274;43.980;2024-03-29T09:11:30;1.58;;;1.58;;
69981;SDS011;57319;56.274;43.980;2024-03-29T09:13:56;1.25;;;1.25;;
69981;SDS011;57319;56.274;43.980;2024-03-29T09:16:26;1.30;;;1.25;;
69981;SDS011;57319;56.274;43.980;2024-03-29T09:18:56;2.22;;;1.42;;
69981;SDS011;57319;56.274;43.980;2024-03-29T09:21:23;1.45;;;1.40;;
69981;SDS011;57319;56.274;43.980;2024-03-29T09:23:49;1.48;;;1.48;;
69981;SDS011;57319;56.274;43.980;2024-03-29T09:26:18;2.10;;;1.85;;
69981;SDS011;57319;56.274;43.980;2024-03-29T09:28:43;7.65;;;1.60;;
69981;SDS011;57319;56.274;43.980;2024-03-29T09:31:09;2.10;;;1.40;;
69981;SDS011;57319;56.274;43.980;2024-03-29T09:33:36;2.05;;;1.90;;
69981;SDS011;57319;56.274;43.980;2024-03-29T09:36:02;4.30;;;1.75;;
69981;SDS011;57319;56.274;43.980;2024-03-29T09:38:28;1.60;;;1.50;;
69981;SDS011;57319;56.274;43.980;2024-03-29T09:41:03;1.95;;;1.90;;
69981;SDS011;57319;56.274;43.980;2024-03-29T09:46:07;3.13;;;1.58;;
69981;SDS011;57319;56.274;43.980;2024-03-29T09:48:33;1.80;;;1.70;;
69981;SDS011;57319;56.274;43.980;2024-03-29T09:51:05;2.30;;;2.10;;
69981;SDS011;57319;56.274;43.980;2024-03-29T09:53:35;4.30;;;2.20;;
69981;SDS011;57319;56.274;43.980;2024-03-29T09:56:06;5.45;;;1.60;;
69981;SDS011;57319;56.274;43.980;2024-03-29T09:58:33;1.85;;;1.77;;
69981;SDS011;57319;56.274;43.980;2024-03-29T10:01:05;3.50;;;1.98;;
69981;SDS011;57319;56.274;43.980;2024-03-29T10:03:40;2.13;;;2.10;;
69981;SDS011;57319;56.274;43.980;2024-03-29T10:06:10;4.75;;;1.80;;
69981;SDS011;57319;56.274;43.980;2024-03-29T10:08:39;2.30;;;2.10;;
69981;SDS011;57319;56.274;43.980;2024-03-29T10:11:05;7.32;;;1.63;;
69981;SDS011;57319;56.274;43.980;2024-03-29T10:13:31;5.30;;;2.42;;
69981;SDS011;57319;56.274;43.980;2024-03-29T10:15:57;7.22;;;2.55;;
69981;SDS011;57319;56.274;43.980;2024-03-29T10:18:25;1.55;;;1.45;;
69981;SDS011;57319;56.274;43.980;2024-03-29T10:21:05;4.15;;;1.98;;
69981;SDS011;57319;56.274;43.980;2024-03-29T10:23:32;1.95;;;1.85;;
69981;SDS011;57319;56.274;43.980;2024-03-29T10:26:00;6.45;;;1.60;;
69981;SDS011;57319;56.274;43.980;2024-03-29T10:28:35;2.38;;;2.20;;
69981;SDS011;57319;56.274;43.980;2024-03-29T10:31:03;2.43;;;2.23;;
69981;SDS011;57319;56.274;43.980;2024-03-29T10:33:30;1.75;;;1.63;;
69981;SDS011;57319;56.274;43.980;2024-03-29T10:35:56;2.45;;;1.58;;
69981;SDS011;57319;56.274;43.980;2024-03-29T10:38:25;1.67;;;1.55;;
69981;SDS011;57319;56.274;43.980;2024-03-29T10:40:53;11.55;;;1.80;;
69981;SDS011;57319;56.274;43.980;2024-03-29T10:43:20;2.25;;;1.83;;
69981;SDS011;57319;56.274;43.980;2024-03-29T10:45:47;3.58;;;1.48;;
69981;SDS011;57319;56.274;43.980;2024-03-29T10:48:17;5.60;;;1.70;;
69981;SDS011;57319;56.274;43.980;2024-03-29T10:50:47;3.05;;;1.80;;
69981;SDS011;57319;56.274;43.980;2024-03-29T10:53:16;9.65;;;2.10;;
69981;SDS011;57319;56.274;43.980;2024-03-29T10:56:16;4.25;;;1.65;;
69981;SDS011;57319;56.274;43.980;2024-03-29T10:58:44;5.90;;;1.92;;
69981;SDS011;57319;56.274;43.980;2024-03-29T11:01:15;2.67;;;1.90;;
69981;SDS011;57319;56.274;43.980;2024-03-29T11:03:49;1.73;;;1.70;;
69981;SDS011;57319;56.274;43.980;2024-03-29T11:06:19;4.47;;;1.80;;
69981;SDS011;57319;56.274;43.980;2024-03-29T11:08:50;2.25;;;1.60;;
69981;SDS011;57319;56.274;43.980;2024-03-29T11:11:17;2.13;;;2.03;;
69981;SDS011;57319;56.274;43.980;2024-03-29T11:13:56;3.00;;;1.80;;
69981;SDS011;57319;56.274;43.980;2024-03-29T11:16:29;3.13;;;1.77;;
69981;SDS011;57319;56.274;43.980;2024-03-29T11:19:05;2.00;;;1.90;;
69981;SDS011;57319;56.274;43.980;2024-03-29T11:21:55;1.63;;;1.52;;
69981;SDS011;57319;56.274;43.980;2024-03-29T11:24:22;2.08;;;1.70;;
69981;SDS011;57319;56.274;43.980;2024-03-29T11:26:49;3.58;;;1.60;;
69981;SDS011;57319;56.274;43.980;2024-03-29T11:29:22;2.78;;;1.80;;
69981;SDS011;57319;56.274;43.980;2024-03-29T11:31:56;1.67;;;1.57;;
69981;SDS011;57319;56.274;43.980;2024-03-29T11:34:22;3.63;;;2.13;;
69981;SDS011;57319;56.274;43.980;2024-03-29T11:36:48;2.00;;;1.80;;
69981;SDS011;57319;56.274;43.980;2024-03-29T11:39:20;4.75;;;1.77;;
69981;SDS011;57319;56.274;43.980;2024-03-29T11:41:47;2.00;;;1.90;;
69981;SDS011;57319;56.274;43.980;2024-03-29T11:44:16;2.60;;;2.00;;
69981;SDS011;57319;56.274;43.980;2024-03-29T11:46:43;2.60;;;1.70;;
69981;SDS011;57319;56.274;43.980;2024-03-29T11:49:10;5.05;;;2.10;;
69981;SDS011;57319;56.274;43.980;2024-03-29T11:51:36;2.30;;;2.10;;
69981;SDS011;57319;56.274;43.980;2024-03-29T11:57:04;7.20;;;1.70;;
69981;SDS011;57319;56.274;43.980;2024-03-29T11:59:30;4.15;;;2.20;;
69981;SDS011;57319;56.274;43.980;2024-03-29T12:01:57;4.05;;;1.92;;
69981;SDS011;57319;56.274;43.980;2024-03-29T12:04:23;1.95;;;1.80;;
69981;SDS011;57319;56.274;43.980;2024-03-29T12:06:49;3.70;;;2.03;;
69981;SDS011;57319;56.274;43.980;2024-03-29T12:09:15;5.10;;;2.40;;
69981;SDS011;57319;56.274;43.980;2024-03-29T12:11:43;3.17;;;2.30;;
69981;SDS011;57319;56.274;43.980;2024-03-29T12:14:13;3.00;;;2.10;;
69981;SDS011;57319;56.274;43.980;2024-03-29T12:16:44;2.20;;;2.10;;
69981;SDS011;57319;56.274;43.980;2024-03-29T12:19:23;4.97;;;2.10;;
69981;SDS011;57319;56.274;43.980;2024-03-29T12:21:50;3.47;;;2.33;;
69981;SDS011;57319;56.274;43.980;2024-03-29T12:24:16;3.47;;;3.08;;
69981;SDS011;57319;56.274;43.980;2024-03-29T12:26:42;3.67;;;2.53;;
69981;SDS011;57319;56.274;43.980;2024-03-29T12:29:08;2.95;;;2.40;;
69981;SDS011;57319;56.274;43.980;2024-03-29T12:31:34;3.50;;;2.65;;
69981;SDS011;57319;56.274;43.980;2024-03-29T12:34:00;6.63;;;2.30;;
69981;SDS011;57319;56.274;43.980;2024-03-29T12:36:27;2.25;;;1.95;;
69981;SDS011;57319;56.274;43.980;2024-03-29T12:38:55;2.28;;;2.15;;
69981;SDS011;57319;56.274;43.980;2024-03-29T12:41:24;2.40;;;2.30;;
69981;SDS011;57319;56.274;43.980;2024-03-29T12:43:53;2.15;;;2.03;;
69981;SDS011;57319;56.274;43.980;2024-03-29T12:46:19;2.70;;;1.83;;
69981;SDS011;57319;56.274;43.980;2024-03-29T12:48:44;5.85;;;2.50;;
69981;SDS011;57319;56.274;43.980;2024-03-29T12:51:10;3.90;;;2.40;;
69981;SDS011;57319;56.274;43.980;2024-03-29T12:53:38;2.47;;;1.90;;
69981;SDS011;57319;56.274;43.980;2024-03-29T12:56:04;3.63;;;2.25;;
69981;SDS011;57319;56.274;43.980;2024-03-29T12:58:31;2.90;;;2.60;;
69981;SDS011;57319;56.274;43.980;2024-03-29T13:00:56;5.53;;;2.60;;
69981;SDS011;57319;56.274;43.980;2024-03-29T13:03:22;5.25;;;2.13;;
69981;SDS011;57319;56.274;43.980;2024-03-29T13:05:48;2.17;;;2.05;;
69981;SDS011;57319;56.274;43.980;2024-03-29T13:08:14;2.33;;;2.22;;
69981;SDS011;57319;56.274;43.980;2024-03-29T13:10:43;2.28;;;1.88;;
69981;SDS011;57319;56.274;43.980;2024-03-29T13:13:10;2.72;;;1.95;;
69981;SDS011;57319;56.274;43.980;2024-03-29T13:15:37;2.15;;;2.05;;
69981;SDS011;57319;56.274;43.980;2024-03-29T13:18:04;3.92;;;2.45;;
69981;SDS011;57319;56.274;43.980;2024-03-29T13:20:31;7.18;;;3.17;;
69981;SDS011;57319;56.274;43.980;2024-03-29T13:23:00;6.50;;;3.00;;
69981;SDS011;57319;56.274;43.980;2024-03-29T13:25:26;3.20;;;2.90;;
69981;SDS011;57319;56.274;43.980;2024-03-29T13:27:53;4.10;;;3.70;;
69981;SDS011;57319;56.274;43.980;2024-03-29T13:30:22;4.30;;;4.10;;
69981;SDS011;57319;56.274;43.980;2024-03-29T13:32:48;5.95;;;3.10;;
69981;SDS011;57319;56.274;43.980;2024-03-29T13:35:14;2.50;;;2.05;;
69981;SDS011;57319;56.274;43.980;2024-03-29T13:37:41;3.10;;;2.22;;
69981;SDS011;57319;56.274;43.980;2024-03-29T13:40:09;9.23;;;4.10;;
69981;SDS011;57319;56.274;43.980;2024-03-29T13:42:36;6.05;;;4.40;;
69981;SDS011;57319;56.274;43.980;2024-03-29T13:45:04;3.85;;;3.65;;
69981;SDS011;57319;56.274;43.980;2024-03-29T13:47:34;5.25;;;3.17;;
69981;SDS011;57319;56.274;43.980;2024-03-29T13:50:05;2.80;;;2.60;;
69981;SDS011;57319;56.274;43.980;2024-03-29T13:52:31;2.25;;;2.22;;
69981;SDS011;57319;56.274;43.980;2024-03-29T13:54:57;2.80;;;2.67;;
69981;SDS011;57319;56.274;43.980;2024-03-29T13:57:23;2.63;;;2.40;;
69981;SDS011;57319;56.274;43.980;2024-03-29T13:59:50;7.10;;;2.17;;
69981;SDS011;57319;56.274;43.980;2024-03-29T14:02:16;3.58;;;1.88;;
69981;SDS011;57319;56.274;43.980;2024-03-29T14:04:43;8.85;;;2.20;;
69981;SDS011;57319;56.274;43.980;2024-03-29T14:07:10;2.38;;;2.17;;
69981;SDS011;57319;56.274;43.980;2024-03-29T14:09:37;2.70;;;2.40;;
69981;SDS011;57319;56.274;43.980;2024-03-29T14:12:04;2.88;;;2.15;;
69981;SDS011;57319;56.274;43.980;2024-03-29T14:14:31;4.32;;;2.28;;
69981;SDS011;57319;56.274;43.980;2024-03-29T14:16:57;5.32;;;2.08;;
69981;SDS011;57319;56.274;43.980;2024-03-29T14:19:33;7.13;;;2.00;;
69981;SDS011;57319;56.274;43.980;2024-03-29T14:22:00;2.53;;;2.03;;
69981;SDS011;57319;56.274;43.980;2024-03-29T14:24:26;8.32;;;1.88;;
69981;SDS011;57319;56.274;43.980;2024-03-29T14:26:56;6.13;;;2.88;;
69981;SDS011;57319;56.274;43.980;2024-03-29T14:29:22;4.68;;;2.15;;
69981;SDS011;57319;56.274;43.980;2024-03-29T14:31:48;7.00;;;3.13;;
69981;SDS011;57319;56.274;43.980;2024-03-29T14:34:14;7.15;;;2.55;;
69981;SDS011;57319;56.274;43.980;2024-03-29T14:36:40;3.22;;;2.92;;
69981;SDS011;57319;56.274;43.980;2024-03-29T14:39:06;4.20;;;2.58;;